createdAt,value
2022-12-06T00:02:17.724Z,2.92
2022-12-06T00:04:48.207Z,3.55
2022-12-06T00:07:17.357Z,3.85
2022-12-06T00:09:47.070Z,2.70
2022-12-06T00:12:17.311Z,3.25
2022-12-06T00:14:46.818Z,3.00
2022-12-06T00:17:19.679Z,2.65
2022-12-06T00:19:53.420Z,2.88
2022-12-06T00:22:22.998Z,3.95
2022-12-06T00:24:52.194Z,3.03
2022-12-06T00:27:22.240Z,3.03
2022-12-06T00:29:50.581Z,4.60
2022-12-06T00:32:19.869Z,3.55
2022-12-06T00:34:48.426Z,4.53
2022-12-06T00:37:17.153Z,3.67
2022-12-06T00:39:45.942Z,2.90
2022-12-06T00:42:18.029Z,2.88
2022-12-06T00:44:48.775Z,4.00
2022-12-06T00:47:16.938Z,2.83
2022-12-06T00:49:45.801Z,2.10
2022-12-06T00:52:14.283Z,4.65
2022-12-06T00:54:42.566Z,1.75
2022-12-06T00:57:12.258Z,2.63
2022-12-06T00:59:42.051Z,2.30
2022-12-06T01:02:11.890Z,3.35
2022-12-06T01:04:40.091Z,2.30
2022-12-06T01:07:09.513Z,3.60
2022-12-06T01:09:39.704Z,2.85
2022-12-06T01:12:09.199Z,3.08
2022-12-06T01:14:37.362Z,2.17
2022-12-06T01:17:08.990Z,3.50
2022-12-06T01:19:38.955Z,4.95
2022-12-06T01:22:07.380Z,2.13
2022-12-06T01:24:35.680Z,1.63
2022-12-06T01:27:03.815Z,4.13
2022-12-06T01:29:32.116Z,2.58
2022-12-06T01:32:00.305Z,2.97
2022-12-06T01:34:31.507Z,3.05
2022-12-06T01:37:01.703Z,2.15
2022-12-06T01:39:29.842Z,2.63
2022-12-06T01:41:58.045Z,2.80
2022-12-06T01:44:44.355Z,1.98
2022-12-06T01:47:16.295Z,1.90
2022-12-06T01:49:48.920Z,6.53
2022-12-06T01:52:20.295Z,1.92
2022-12-06T01:54:49.420Z,3.60
2022-12-06T01:57:18.992Z,1.75
2022-12-06T01:59:47.632Z,2.50
2022-12-06T02:02:17.164Z,3.03
2022-12-06T02:04:46.460Z,1.75
2022-12-06T02:07:15.321Z,1.02
2022-12-06T02:09:46.969Z,2.00
2022-12-06T02:12:16.561Z,1.20
2022-12-06T02:14:48.632Z,1.98
2022-12-06T02:17:35.055Z,1.60
2022-12-06T02:20:20.388Z,2.35
2022-12-06T02:23:22.460Z,1.20
2022-12-06T02:26:18.812Z,1.23
2022-12-06T02:29:19.988Z,2.22
2022-12-06T02:31:57.993Z,2.97
2022-12-06T02:34:32.688Z,1.45
2022-12-06T02:37:12.581Z,1.95
2022-12-06T02:40:00.202Z,2.35
2022-12-06T02:42:43.054Z,2.03
2022-12-06T02:45:18.844Z,1.10
2022-12-06T02:47:58.815Z,1.45
2022-12-06T02:50:33.091Z,1.63
2022-12-06T02:53:04.440Z,2.28
2022-12-06T02:55:35.595Z,1.92
2022-12-06T02:58:04.192Z,1.90
2022-12-06T03:00:38.225Z,1.33
2022-12-06T03:03:42.820Z,1.42
2022-12-06T03:06:36.597Z,0.73
2022-12-06T03:09:15.214Z,1.02
2022-12-06T03:11:53.138Z,1.15
2022-12-06T03:14:24.095Z,1.42
2022-12-06T03:17:02.432Z,0.70
2022-12-06T03:19:33.214Z,1.55
2022-12-06T03:22:09.486Z,0.50
2022-12-06T03:24:41.491Z,0.82
2022-12-06T03:27:17.516Z,1.08
2022-12-06T03:29:51.718Z,1.20
2022-12-06T03:32:25.911Z,0.98
2022-12-06T03:35:00.238Z,1.13
2022-12-06T03:37:33.660Z,1.20
2022-12-06T03:40:09.617Z,0.93
2022-12-06T03:42:38.309Z,1.17
2022-12-06T03:45:08.312Z,0.50
2022-12-06T03:47:41.884Z,0.82
2022-12-06T03:50:17.928Z,1.95
2022-12-06T03:52:46.645Z,0.93
2022-12-06T03:55:15.169Z,0.73
2022-12-06T03:57:43.677Z,1.20
2022-12-06T04:00:13.207Z,3.10
2022-12-06T04:02:41.914Z,2.45
2022-12-06T04:05:12.058Z,2.17
2022-12-06T04:07:40.777Z,2.67
2022-12-06T04:10:10.139Z,3.35
2022-12-06T04:13:01.745Z,2.60
2022-12-06T04:15:31.852Z,6.70
2022-12-06T04:18:14.398Z,2.83
2022-12-06T04:21:04.751Z,2.55
2022-12-06T04:23:36.006Z,1.80
2022-12-06T04:26:06.325Z,5.43
2022-12-06T04:28:53.082Z,2.53
2022-12-06T04:31:39.472Z,3.05
2022-12-06T04:34:25.938Z,2.53
2022-12-06T04:37:13.809Z,1.90
2022-12-06T04:39:41.789Z,3.40
2022-12-06T04:42:27.476Z,2.75
2022-12-06T04:44:55.356Z,2.78
2022-12-06T04:47:23.781Z,3.05
2022-12-06T04:49:51.832Z,2.03
2022-12-06T04:52:21.077Z,2.67
2022-12-06T04:54:48.938Z,5.22
2022-12-06T04:57:18.147Z,3.28
2022-12-06T04:59:46.718Z,3.42
2022-12-06T05:02:16.835Z,4.35
2022-12-06T05:04:44.775Z,3.50
2022-12-06T05:07:12.697Z,1.95
2022-12-06T05:09:42.045Z,2.58
2022-12-06T05:12:10.040Z,3.03
2022-12-06T05:14:37.981Z,5.85
2022-12-06T05:17:05.895Z,6.72
2022-12-06T05:19:33.804Z,3.40
2022-12-06T05:22:01.750Z,3.45
2022-12-06T05:24:30.167Z,4.45
2022-12-06T05:26:59.755Z,3.72
2022-12-06T05:29:27.693Z,4.90
2022-12-06T05:31:55.686Z,3.88
2022-12-06T05:34:24.850Z,7.78
2022-12-06T05:36:52.860Z,5.60
2022-12-06T05:39:21.016Z,4.90
2022-12-06T05:41:48.997Z,3.95
2022-12-06T05:44:18.473Z,3.65
2022-12-06T05:46:46.378Z,3.83
2022-12-06T05:49:14.328Z,4.30
2022-12-06T05:51:42.442Z,4.22
2022-12-06T05:54:10.456Z,3.78
2022-12-06T05:56:40.020Z,5.35
2022-12-06T05:59:07.919Z,5.72
2022-12-06T06:01:37.586Z,5.22
2022-12-06T06:04:06.019Z,8.27
2022-12-06T06:06:34.082Z,6.50
2022-12-06T06:09:02.663Z,25.33
2022-12-06T06:11:31.058Z,8.30
2022-12-06T06:13:59.243Z,6.22
2022-12-06T06:16:27.660Z,4.07
2022-12-06T06:18:57.321Z,3.75
2022-12-06T06:21:25.831Z,9.00
2022-12-06T06:23:54.340Z,5.00
2022-12-06T06:26:23.159Z,3.88
2022-12-06T06:28:51.329Z,4.38
2022-12-06T06:31:20.295Z,5.85
2022-12-06T06:33:48.809Z,4.90
2022-12-06T06:36:18.816Z,7.85
2022-12-06T06:38:47.122Z,10.32
2022-12-06T06:41:15.438Z,7.70
2022-12-06T06:43:43.784Z,8.77
2022-12-06T06:46:12.081Z,11.25
2022-12-06T06:48:40.976Z,8.40
2022-12-06T06:51:11.048Z,7.75
2022-12-06T06:53:41.147Z,11.48
2022-12-06T06:56:10.122Z,9.68
2022-12-06T06:58:38.625Z,5.07
2022-12-06T07:01:08.649Z,14.90
2022-12-06T07:03:37.369Z,4.78
2022-12-06T07:06:21.573Z,6.82
2022-12-06T07:26:14.792Z,9.82
2022-12-06T07:28:49.209Z,7.70
2022-12-06T07:31:19.399Z,6.07
2022-12-06T07:33:58.224Z,6.50
2022-12-06T07:36:28.136Z,8.07
2022-12-06T07:38:58.120Z,6.07
2022-12-06T07:41:42.190Z,7.82
2022-12-06T07:44:38.822Z,11.57
2022-12-06T07:47:07.297Z,6.60
2022-12-06T07:49:35.360Z,9.25
2022-12-06T07:52:03.421Z,7.57
2022-12-06T07:54:31.423Z,9.43
2022-12-06T07:56:59.444Z,7.70
2022-12-06T07:59:28.843Z,7.68
2022-12-06T08:01:56.825Z,7.82
2022-12-06T08:04:26.051Z,9.45
2022-12-06T08:06:54.216Z,8.82
2022-12-06T08:09:22.645Z,6.03
2022-12-06T08:11:51.191Z,7.72
2022-12-06T08:14:19.503Z,8.80
2022-12-06T08:16:48.975Z,8.82
2022-12-06T08:19:17.004Z,8.57
2022-12-06T08:21:45.205Z,7.95
2022-12-06T08:24:13.895Z,9.65
2022-12-06T08:26:41.986Z,6.88
2022-12-06T08:29:10.352Z,9.73
2022-12-06T08:31:38.482Z,9.80
2022-12-06T08:34:08.817Z,6.97
2022-12-06T08:36:40.379Z,9.82
2022-12-06T08:39:11.314Z,7.72
2022-12-06T08:41:58.212Z,10.48
2022-12-06T08:44:28.853Z,16.30
2022-12-06T08:46:57.271Z,12.45
2022-12-06T08:49:28.668Z,13.48
2022-12-06T08:51:57.144Z,13.77
2022-12-06T08:54:26.430Z,12.75
2022-12-06T08:56:54.886Z,15.55
2022-12-06T08:59:23.153Z,9.10
2022-12-06T09:01:51.314Z,18.27
2022-12-06T09:04:19.758Z,16.13
2022-12-06T09:06:49.084Z,11.95
2022-12-06T09:09:19.428Z,12.60
2022-12-06T09:11:50.327Z,10.38
2022-12-06T09:14:22.364Z,18.73
2022-12-06T09:16:55.793Z,12.52
2022-12-06T09:19:24.334Z,15.98
2022-12-06T09:21:59.438Z,13.38
2022-12-06T09:24:28.096Z,13.88
2022-12-06T09:27:17.736Z,25.48
2022-12-06T09:29:56.395Z,16.92
2022-12-06T09:32:32.668Z,13.27
2022-12-06T09:35:13.834Z,13.77
2022-12-06T09:38:11.764Z,16.98
2022-12-06T09:41:03.484Z,18.23
2022-12-06T09:47:37.288Z,13.95
2022-12-06T09:57:58.227Z,13.20
2022-12-06T10:00:47.328Z,10.98
2022-12-06T10:03:47.226Z,9.98
2022-12-06T10:06:29.841Z,10.90
2022-12-06T10:09:22.594Z,12.20
2022-12-06T10:12:19.683Z,10.77
2022-12-06T10:15:30.901Z,11.88
2022-12-06T10:18:37.230Z,14.98
2022-12-06T10:21:23.283Z,7.72
2022-12-06T10:24:01.909Z,8.13
2022-12-06T10:26:39.187Z,10.90
2022-12-06T10:29:25.956Z,10.25
2022-12-06T10:32:00.979Z,12.13
2022-12-06T10:34:56.011Z,16.30
2022-12-06T10:37:47.727Z,10.98
2022-12-06T10:40:23.858Z,9.70
2022-12-06T10:43:04.531Z,5.32
2022-12-06T10:46:05.655Z,6.10
2022-12-06T10:48:51.120Z,8.50
2022-12-06T10:51:25.689Z,5.00
2022-12-06T10:54:02.293Z,9.25
2022-12-06T10:56:42.825Z,5.55
2022-12-06T10:59:25.353Z,5.47
2022-12-06T11:01:59.002Z,5.30
2022-12-06T11:04:33.314Z,6.60
2022-12-06T11:07:09.817Z,5.32
2022-12-06T11:09:44.898Z,5.47
2022-12-06T11:12:31.059Z,9.63
2022-12-06T11:15:09.896Z,6.72
2022-12-06T11:17:48.200Z,5.72
2022-12-06T11:20:28.379Z,5.00
2022-12-06T11:23:07.552Z,4.25
2022-12-06T11:25:45.164Z,2.13
2022-12-06T11:28:28.556Z,3.17
2022-12-06T11:31:24.778Z,4.35
2022-12-06T11:33:56.978Z,2.42
2022-12-06T11:36:27.114Z,3.92
2022-12-06T11:38:58.172Z,3.78
2022-12-06T11:41:30.214Z,2.92
2022-12-06T11:44:05.726Z,2.53
2022-12-06T11:46:39.370Z,2.95
2022-12-06T11:49:25.224Z,5.28
2022-12-06T11:51:56.800Z,2.92
2022-12-06T11:54:34.718Z,2.65
2022-12-06T11:57:22.152Z,4.82
2022-12-06T12:00:19.705Z,5.32
2022-12-06T12:02:53.214Z,4.25
2022-12-06T12:05:24.345Z,7.10
2022-12-06T12:08:00.696Z,3.75
2022-12-06T12:10:35.689Z,3.90
2022-12-06T12:13:40.578Z,3.83
2022-12-06T12:16:19.237Z,6.05
2022-12-06T12:18:56.180Z,5.00
2022-12-06T12:21:36.226Z,3.55
2022-12-06T12:24:07.215Z,6.13
2022-12-06T12:26:42.185Z,6.30
2022-12-06T12:29:19.734Z,5.05
2022-12-06T12:31:54.664Z,5.53
2022-12-06T12:34:27.144Z,4.38
2022-12-06T12:37:00.901Z,4.35
2022-12-06T12:39:35.184Z,3.90
2022-12-06T12:42:06.889Z,5.13
2022-12-06T12:44:48.236Z,6.97
2022-12-06T12:47:20.544Z,6.75
2022-12-06T12:50:02.231Z,5.07
2022-12-06T12:52:33.982Z,10.70
2022-12-06T12:55:18.778Z,5.20
2022-12-06T12:58:05.048Z,5.00
2022-12-06T13:01:05.979Z,6.63
2022-12-06T13:17:45.593Z,5.50
2022-12-06T13:20:41.561Z,7.13
2022-12-06T13:23:33.805Z,5.82
2022-12-06T13:26:14.261Z,7.85
2022-12-06T13:29:05.959Z,10.63
2022-12-06T13:31:45.354Z,8.18
2022-12-06T13:37:41.578Z,8.10
2022-12-06T13:41:01.708Z,6.80
2022-12-06T13:44:08.415Z,9.23
2022-12-06T13:56:46.282Z,7.18
2022-12-06T13:59:52.025Z,8.13
2022-12-06T14:03:06.048Z,6.28
2022-12-06T14:06:12.137Z,6.72
2022-12-06T14:12:43.020Z,6.07
2022-12-06T14:15:30.964Z,7.20
2022-12-06T14:21:01.746Z,6.90
2022-12-06T14:23:38.532Z,5.97
2022-12-06T14:26:30.011Z,6.13
2022-12-06T14:29:02.062Z,6.57
2022-12-06T14:31:41.509Z,7.03
2022-12-06T14:34:27.597Z,4.72
2022-12-06T14:37:01.480Z,5.32
2022-12-06T14:39:40.376Z,6.35
2022-12-06T14:42:40.637Z,6.25
2022-12-06T14:45:25.095Z,6.43
2022-12-06T14:47:59.651Z,8.93
2022-12-06T14:50:44.476Z,7.70
2022-12-06T14:53:26.550Z,5.13
2022-12-06T14:56:19.655Z,5.75
2022-12-06T14:59:00.801Z,6.32
2022-12-06T15:01:35.535Z,8.75
2022-12-06T15:04:20.499Z,4.82
2022-12-06T15:07:00.875Z,7.25
2022-12-06T15:09:34.492Z,6.55
2022-12-06T15:12:39.938Z,5.55
2022-12-06T15:15:33.761Z,4.07
2022-12-06T15:18:26.067Z,6.63
2022-12-06T15:20:59.856Z,3.85
2022-12-06T15:23:38.848Z,7.75
2022-12-06T15:26:11.391Z,5.97
2022-12-06T15:28:42.102Z,6.38
2022-12-06T15:31:22.679Z,7.72
2022-12-06T15:33:51.937Z,4.55
2022-12-06T15:36:28.258Z,8.27
2022-12-06T15:39:02.673Z,6.43
2022-12-06T15:41:33.929Z,7.28
2022-12-06T15:44:04.502Z,6.72
2022-12-06T15:46:40.070Z,4.38
2022-12-06T15:49:14.508Z,4.22
2022-12-06T15:51:47.916Z,9.43
2022-12-06T15:54:19.473Z,7.88
2022-12-06T15:56:49.896Z,6.97
2022-12-06T15:59:19.920Z,4.95
2022-12-06T16:01:51.235Z,8.27
2022-12-06T16:04:22.568Z,5.78
2022-12-06T16:07:24.552Z,5.95
2022-12-06T16:09:59.305Z,8.60
2022-12-06T16:12:52.193Z,6.53
2022-12-06T16:15:24.642Z,7.15
2022-12-06T16:18:00.284Z,5.18
2022-12-06T16:20:43.916Z,6.93
2022-12-06T16:24:04.569Z,4.72
2022-12-06T16:26:32.376Z,5.93
2022-12-06T16:29:08.433Z,5.43
2022-12-06T16:31:46.046Z,7.13
2022-12-06T16:34:15.952Z,3.65
2022-12-06T16:36:58.990Z,3.72
2022-12-06T16:39:29.413Z,4.85
2022-12-06T16:41:57.687Z,8.27
2022-12-06T16:44:26.443Z,3.08
2022-12-06T16:46:54.758Z,3.70
2022-12-06T16:52:12.649Z,4.57
2022-12-06T16:54:42.848Z,4.65
2022-12-06T16:57:11.865Z,2.63
2022-12-06T16:59:40.467Z,1.70
2022-12-06T17:02:24.748Z,3.67
2022-12-06T17:04:53.302Z,4.72
2022-12-06T17:07:21.196Z,4.18
2022-12-06T17:09:50.711Z,9.13
2022-12-06T17:12:19.131Z,4.45
2022-12-06T17:14:47.568Z,4.22
2022-12-06T17:17:16.966Z,3.13
2022-12-06T17:19:45.853Z,7.70
2022-12-06T17:22:16.713Z,9.10
2022-12-06T17:24:44.849Z,7.82
2022-12-06T17:27:15.321Z,5.15
2022-12-06T17:29:45.010Z,8.73
2022-12-06T17:32:13.791Z,7.80
2022-12-06T17:34:41.963Z,9.32
2022-12-06T17:37:10.142Z,10.05
2022-12-06T17:39:38.307Z,8.95
2022-12-06T17:42:25.148Z,6.63
2022-12-06T17:44:55.099Z,6.85
2022-12-06T17:47:23.443Z,6.90
2022-12-06T17:49:53.601Z,4.75
2022-12-06T17:52:27.808Z,6.00
2022-12-06T17:54:57.174Z,6.00
2022-12-06T17:57:26.203Z,5.55
2022-12-06T17:59:56.623Z,6.45
2022-12-06T18:02:26.028Z,8.35
2022-12-06T18:04:56.436Z,4.80
2022-12-06T18:07:25.566Z,5.43
2022-12-06T18:09:54.812Z,9.80
2022-12-06T18:12:29.274Z,4.68
2022-12-06T18:15:02.575Z,9.15
2022-12-06T18:17:32.280Z,7.30
2022-12-06T18:20:01.503Z,5.88
2022-12-06T18:22:30.403Z,8.45
2022-12-06T18:24:59.460Z,4.88
2022-12-06T18:27:31.931Z,5.18
2022-12-06T18:30:09.710Z,6.35
2022-12-06T18:32:41.900Z,4.88
2022-12-06T18:42:17.542Z,6.00
2022-12-06T18:54:11.307Z,4.82
2022-12-06T19:21:15.525Z,4.43
2022-12-06T19:23:58.112Z,5.68
2022-12-06T19:26:53.956Z,5.75
2022-12-06T19:32:28.390Z,3.55
2022-12-06T19:35:25.733Z,4.25
2022-12-06T19:38:05.290Z,4.30
2022-12-06T19:40:51.329Z,3.97
2022-12-06T19:44:01.911Z,3.80
2022-12-06T19:46:42.142Z,8.98
2022-12-06T19:49:26.471Z,7.63
2022-12-06T19:52:11.333Z,5.43
2022-12-06T20:24:41.765Z,6.05
2022-12-06T20:33:49.582Z,11.47
2022-12-06T20:55:06.379Z,10.70
2022-12-06T20:57:39.324Z,7.88
2022-12-06T21:00:12.022Z,5.95
2022-12-06T21:02:41.596Z,8.70
2022-12-06T21:05:18.890Z,6.78
2022-12-06T21:08:03.725Z,6.03
2022-12-06T21:17:20.080Z,6.30
2022-12-06T21:19:51.630Z,8.05
2022-12-06T21:22:26.434Z,5.65
2022-12-06T21:28:19.109Z,6.22
2022-12-06T21:30:51.468Z,8.18
2022-12-06T22:11:25.754Z,7.03
2022-12-06T22:14:00.342Z,8.05
2022-12-06T22:16:30.750Z,8.73
2022-12-06T22:19:03.482Z,10.80
2022-12-06T22:21:34.519Z,8.52
2022-12-06T22:24:06.164Z,12.73
2022-12-06T22:26:36.386Z,8.30
2022-12-06T22:29:05.759Z,8.30
2022-12-06T22:31:35.480Z,8.82
2022-12-06T22:34:03.650Z,9.30
2022-12-06T22:36:36.662Z,8.63
2022-12-06T22:39:06.623Z,9.00
2022-12-06T22:41:36.259Z,12.65
2022-12-06T22:44:06.812Z,9.60
2022-12-06T22:46:36.425Z,11.80
2022-12-06T22:49:05.290Z,12.88
2022-12-06T22:51:34.754Z,7.07
2022-12-06T22:54:04.805Z,7.40
2022-12-06T22:56:35.114Z,8.35
2022-12-06T22:59:03.649Z,9.07
2022-12-06T23:01:33.332Z,8.88
2022-12-06T23:04:03.889Z,9.20
2022-12-06T23:06:32.380Z,14.10
2022-12-06T23:09:01.048Z,8.32
2022-12-06T23:11:31.592Z,12.05
2022-12-06T23:14:03.023Z,7.97
2022-12-06T23:19:19.570Z,7.95
2022-12-06T23:21:48.075Z,10.13
2022-12-06T23:24:16.247Z,14.43
2022-12-06T23:26:46.632Z,12.52
2022-12-06T23:29:16.858Z,10.80
2022-12-06T23:31:46.731Z,15.35
2022-12-06T23:34:16.922Z,7.47
2022-12-06T23:36:45.315Z,10.60
2022-12-06T23:39:13.317Z,15.60
2022-12-06T23:41:41.851Z,11.18
2022-12-06T23:44:12.832Z,13.98
2022-12-06T23:46:43.915Z,12.70
2022-12-06T23:49:15.853Z,14.23
2022-12-06T23:51:43.782Z,12.55
2022-12-06T23:54:12.962Z,12.18
2022-12-06T23:56:42.482Z,11.93
2022-12-06T23:59:14.370Z,12.85
